Time;durP1;ratioP1;P1;durP2;ratioP2;P2;SDS_P1;SDS_P2;PMS_P1;PMS_P2;Temp;Humidity;BMP_temperature;BMP_pressure;BME280_temperature;BME280_humidity;BME280_pressure;Samples;Min_cycle;Max_cycle;Signal;HPM_P1;HPM_P2
2023/12/20 00:00:16;;;;;;;38.17;22.33;;;;;;;1.02;100.00;100478.72;5051551;28;20039;-78
2023/12/20 00:02:44;;;;;;;43.47;22.60;;;;;;;0.76;100.00;100476.78;5051338;28;20021;-78
2023/12/20 00:05:10;;;;;;;44.72;23.48;;;;;;;0.89;100.00;100451.97;5050872;28;20155;-79
2023/12/20 00:07:35;;;;;;;39.28;22.48;;;;;;;1.15;100.00;100446.88;5033237;28;20457;-79
2023/12/20 00:10:01;;;;;;;36.55;21.50;;;;;;;1.29;100.00;100479.66;5051067;28;20464;-79
2023/12/20 00:12:26;;;;;;;34.30;20.92;;;;;;;1.46;100.00;100502.53;5051103;28;20025;-79
2023/12/20 00:14:51;;;;;;;42.20;26.42;;;;;;;1.49;100.00;100494.34;5051381;28;20032;-77
2023/12/20 00:17:17;;;;;;;47.10;33.63;;;;;;;1.27;100.00;100461.44;5051384;28;20021;-79
2023/12/20 00:19:42;;;;;;;154.82;61.50;;;;;;;1.22;100.00;100468.94;5071356;28;20421;-79
2023/12/20 00:22:08;;;;;;;62.92;32.83;;;;;;;1.37;100.00;100479.78;5071146;28;20103;-78
2023/12/20 00:24:33;;;;;;;52.88;27.08;;;;;;;1.06;100.00;100416.22;5052808;28;20032;-78
2023/12/20 00:26:59;;;;;;;41.55;25.02;;;;;;;1.01;100.00;100461.31;5053095;28;20085;-79
2023/12/20 00:29:24;;;;;;;38.95;22.85;;;;;;;1.17;100.00;100482.50;5036609;28;20032;-80
2023/12/20 00:31:49;;;;;;;44.55;25.70;;;;;;;1.31;100.00;100504.00;5050841;28;20753;-81
2023/12/20 00:34:15;;;;;;;65.80;32.25;;;;;;;1.27;100.00;100461.44;5051036;28;20075;-78
2023/12/20 00:36:40;;;;;;;40.55;23.52;;;;;;;0.74;100.00;100420.16;5050738;28;20398;-78
2023/12/20 00:39:06;;;;;;;59.72;30.77;;;;;;;0.64;100.00;100395.75;5062807;28;20111;-80
2023/12/20 00:41:32;;;;;;;61.63;28.10;;;;;;;0.46;100.00;100409.63;5070856;28;20032;-79
2023/12/20 00:43:57;;;;;;;58.53;26.52;;;;;;;0.74;100.00;100413.09;5053106;28;20037;-79
2023/12/20 00:46:23;;;;;;;49.95;26.02;;;;;;;0.57;100.00;100456.69;5070749;28;20103;-78
2023/12/20 00:48:48;;;;;;;48.50;24.38;;;;;;;0.78;100.00;100466.16;5070580;28;20020;-79
2023/12/20 00:51:13;;;;;;;45.42;23.58;;;;;;;0.74;100.00;100468.22;5070779;28;20064;-81
2023/12/20 00:53:39;;;;;;;63.88;32.67;;;;;;;0.54;100.00;100414.16;5070802;28;20450;-78
2023/12/20 00:56:04;;;;;;;65.97;32.30;;;;;;;0.62;100.00;100429.19;5052634;28;20107;-79
2023/12/20 00:58:30;;;;;;;43.15;23.55;;;;;;;0.04;100.00;100419.72;5070584;28;20028;-78
2023/12/20 01:00:55;;;;;;;40.20;22.73;;;;;;;-0.03;100.00;100399.31;5052737;28;20025;-79
2023/12/20 01:03:20;;;;;;;38.30;20.95;;;;;;;0.21;100.00;100447.84;5060948;28;20033;-78
2023/12/20 01:05:46;;;;;;;36.78;21.40;;;;;;;0.40;100.00;100426.78;5054367;28;20061;-79
2023/12/20 01:08:12;;;;;;;60.03;35.30;;;;;;;0.50;100.00;100433.78;5054529;28;20021;-79
2023/12/20 01:10:38;;;;;;;59.08;32.30;;;;;;;0.84;100.00;100454.22;5036123;28;20474;-82
2023/12/20 01:13:03;;;;;;;54.78;30.17;;;;;;;0.74;100.00;100441.97;5054380;28;20040;-78
2023/12/20 01:15:29;;;;;;;55.00;29.73;;;;;;;0.87;100.00;100438.19;5036197;28;20119;-80
2023/12/20 01:17:56;;;;;;;48.35;27.08;;;;;;;0.71;100.00;100412.56;5054286;28;20113;-79
2023/12/20 01:20:22;;;;;;;54.63;30.08;;;;;;;0.94;100.00;100454.97;5054346;28;20040;-78
2023/12/20 01:22:47;;;;;;;53.38;28.73;;;;;;;0.52;100.00;100403.81;5054068;28;20053;-78
2023/12/20 01:25:12;;;;;;;58.97;30.33;;;;;;;0.97;100.00;100425.81;5036106;28;20039;-78
2023/12/20 01:27:38;;;;;;;62.83;33.22;;;;;;;0.86;100.00;100408.47;5053970;28;20029;-80
2023/12/20 01:30:04;;;;;;;71.65;33.58;;;;;;;1.05;100.00;100425.91;5065284;28;20107;-83
2023/12/20 01:32:29;;;;;;;68.32;32.25;;;;;;;0.63;100.00;100368.66;5059751;28;20048;-79
2023/12/20 01:34:55;;;;;;;64.20;33.58;;;;;;;0.96;100.00;100430.25;5053904;28;20108;-78
2023/12/20 01:37:20;;;;;;;59.47;31.52;;;;;;;0.60;100.00;100417.03;5053684;28;20033;-79
2023/12/20 01:39:46;;;;;;;64.82;32.15;;;;;;;0.63;100.00;100405.41;5053738;28;20412;-80
2023/12/20 01:42:11;;;;;;;65.78;31.60;;;;;;;0.65;100.00;100350.97;5035936;28;20116;-79
2023/12/20 01:44:36;;;;;;;59.03;31.45;;;;;;;1.24;100.00;100403.91;5035829;28;20025;-79
2023/12/20 01:47:02;;;;;;;57.28;30.30;;;;;;;0.78;100.00;100367.19;5053668;28;20434;-80
2023/12/20 01:49:28;;;;;;;66.00;31.52;;;;;;;0.31;100.00;100369.94;5035941;28;20028;-78
2023/12/20 01:51:54;;;;;;;58.70;31.67;;;;;;;0.25;100.00;100365.25;5035660;28;20017;-79
2023/12/20 01:54:20;;;;;;;59.28;30.77;;;;;;;0.01;100.00;100352.66;5035432;28;20029;-79
2023/12/20 01:56:46;;;;;;;52.40;29.48;;;;;;;0.41;100.00;100375.16;5053283;28;20119;-80
2023/12/20 01:59:12;;;;;;;53.25;26.63;;;;;;;0.38;100.00;100350.00;5053657;28;20045;-82
2023/12/20 02:01:37;;;;;;;49.20;27.63;;;;;;;0.25;100.00;100373.13;5035370;28;20029;-80
2023/12/20 02:04:04;;;;;;;50.53;26.35;;;;;;;-0.46;100.00;100329.88;5053183;28;20086;-79
2023/12/20 02:06:33;;;;;;;45.58;25.08;;;;;;;-0.73;100.00;100319.31;5035508;28;20067;-79
2023/12/20 02:08:58;;;;;;;49.53;26.73;;;;;;;0.07;100.00;100362.56;5052781;28;20535;-79
2023/12/20 02:11:25;;;;;;;51.67;28.20;;;;;;;0.04;100.00;100369.88;5069262;28;20024;-80
2023/12/20 02:13:50;;;;;;;47.75;24.50;;;;;;;-0.48;100.00;100362.41;5072506;28;20029;-81
2023/12/20 02:16:16;;;;;;;44.97;24.08;;;;;;;-0.90;100.00;100321.66;5072888;28;20047;-79
2023/12/20 02:18:44;;;;;;;45.03;23.75;;;;;;;-0.47;100.00;100338.72;5073184;28;20036;-82
2023/12/20 02:21:09;;;;;;;47.35;25.05;;;;;;;-0.58;100.00;100324.94;5060302;28;20056;-79
2023/12/20 02:23:35;;;;;;;50.92;26.35;;;;;;;-0.45;100.00;100315.81;5052788;28;20183;-79
2023/12/20 02:26:01;;;;;;;41.80;22.52;;;;;;;-0.77;100.00;100362.44;5052488;28;20083;-80
2023/12/20 02:28:26;;;;;;;43.75;22.00;;;;;;;-1.26;100.00;100300.41;5052729;28;20036;-80
2023/12/20 02:30:52;;;;;;;57.83;22.38;;;;;;;-0.75;100.00;100310.75;5052794;28;20027;-79
2023/12/20 02:33:17;;;;;;;45.33;21.98;;;;;;;-0.74;100.00;100325.50;5034715;28;20119;-79
2023/12/20 02:35:42;;;;;;;42.53;21.95;;;;;;;-0.76;100.00;100296.00;5052785;28;20052;-78
2023/12/20 02:38:08;;;;;;;40.97;20.83;;;;;;;-0.14;100.00;100340.97;5052665;28;20033;-78
2023/12/20 02:40:33;;;;;;;41.95;21.08;;;;;;;-0.05;100.00;100325.19;5056874;28;20055;-80
2023/12/20 02:42:59;;;;;;;43.10;22.60;;;;;;;0.10;100.00;100337.84;5072442;28;20063;-80
2023/12/20 02:45:24;;;;;;;46.50;24.90;;;;;;;-0.04;100.00;100350.47;5054541;28;20035;-80
2023/12/20 02:47:50;;;;;;;47.83;25.55;;;;;;;-0.20;100.00;100345.00;5072241;28;20414;-79
2023/12/20 02:50:15;;;;;;;48.55;27.30;;;;;;;-0.41;100.00;100338.16;5072322;28;20497;-80
2023/12/20 02:52:40;;;;;;;49.85;25.90;;;;;;;-0.53;100.00;100323.56;5014769;28;20029;-78
2023/12/20 02:55:06;;;;;;;44.05;26.75;;;;;;;-0.23;100.00;100329.53;5032420;28;20084;-79
2023/12/20 02:57:33;;;;;;;45.40;28.23;;;;;;;-0.11;100.00;100348.56;5032512;28;20128;-81
2023/12/20 02:59:58;;;;;;;56.38;33.40;;;;;;;-0.67;100.00;100289.94;5032561;28;20021;-79
2023/12/20 03:02:26;;;;;;;42.10;23.38;;;;;;;-0.60;100.00;100327.69;5064423;28;20112;-80
2023/12/20 03:04:52;;;;;;;43.88;25.58;;;;;;;-0.45;100.00;100313.19;5053885;28;20422;-79
2023/12/20 03:07:17;;;;;;;65.25;33.80;;;;;;;-0.27;100.00;100288.84;5071753;28;20111;-79
2023/12/20 03:09:43;;;;;;;68.20;38.92;;;;;;;0.23;100.00;100325.25;5072360;28;20107;-80
2023/12/20 03:12:08;;;;;;;66.22;36.97;;;;;;;-0.09;100.00;100308.09;5053978;28;20060;-80
2023/12/20 03:14:34;;;;;;;68.28;35.50;;;;;;;0.12;100.00;100280.84;5072293;28;20055;-79
2023/12/20 03:16:59;;;;;;;65.47;35.83;;;;;;;0.17;100.00;100291.72;5071362;28;20028;-80
2023/12/20 03:19:24;;;;;;;54.20;32.92;;;;;;;0.15;100.00;100301.53;5053798;28;20056;-80
2023/12/20 03:21:50;;;;;;;59.78;32.25;;;;;;;0.04;100.00;100304.34;5063447;28;20103;-81
2023/12/20 03:24:15;;;;;;;55.75;34.30;;;;;;;0.16;100.00;100297.94;5051859;28;20040;-79
2023/12/20 03:26:40;;;;;;;56.97;35.47;;;;;;;0.43;100.00;100323.34;5050884;28;20482;-78
2023/12/20 03:29:06;;;;;;;62.40;34.88;;;;;;;0.06;100.00;100305.88;5051524;28;20123;-79
2023/12/20 03:31:31;;;;;;;63.88;32.78;;;;;;;-0.42;100.00;100264.91;5055354;28;20397;-79
2023/12/20 03:33:57;;;;;;;70.45;32.30;;;;;;;-0.39;100.00;100292.63;5070973;28;20428;-79
2023/12/20 03:36:22;;;;;;;57.08;28.90;;;;;;;-0.49;100.00;100293.50;5071567;28;20021;-78
2023/12/20 03:38:47;;;;;;;53.63;28.15;;;;;;;-0.15;100.00;100311.31;5071552;28;20024;-80
2023/12/20 03:41:13;;;;;;;65.45;31.17;;;;;;;-0.07;100.00;100272.09;5053384;28;20024;-79
2023/12/20 03:43:38;;;;;;;55.83;29.30;;;;;;;0.17;100.00;100307.47;5051422;28;20021;-80
2023/12/20 03:46:04;;;;;;;50.85;29.90;;;;;;;0.08;100.00;100280.31;5051444;28;20035;-79
2023/12/20 03:48:33;;;;;;;49.67;28.20;;;;;;;-0.28;100.00;100247.91;5033429;28;20021;-78
2023/12/20 03:50:58;;;;;;;41.22;25.60;;;;;;;-0.20;100.00;100274.22;5051216;28;20477;-80
2023/12/20 03:53:24;;;;;;;39.00;24.65;;;;;;;-0.43;100.00;100266.72;5042826;28;20040;-79
2023/12/20 03:55:49;;;;;;;45.47;25.05;;;;;;;-0.96;100.00;100264.63;5051293;28;20033;-79
2023/12/20 03:58:14;;;;;;;55.95;24.17;;;;;;;-1.13;100.00;100278.38;5051097;28;20039;-82
2023/12/20 04:00:40;;;;;;;55.63;26.73;;;;;;;-1.35;100.00;100269.84;5033146;28;20133;-79
2023/12/20 04:03:05;;;;;;;86.38;23.25;;;;;;;-0.90;100.00;100305.09;5033089;28;20025;-78
2023/12/20 04:05:30;;;;;;;81.43;22.88;;;;;;;-1.31;100.00;100247.69;5050788;28;20080;-78
2023/12/20 04:07:56;;;;;;;87.97;25.08;;;;;;;-0.70;100.00;100274.50;5050903;28;20732;-80
2023/12/20 04:10:21;;;;;;;86.78;25.02;;;;;;;-0.62;100.00;100298.19;5050888;28;20033;-79
2023/12/20 04:12:47;;;;;;;95.70;24.48;;;;;;;-1.14;100.00;100259.25;5057399;28;20033;-79
2023/12/20 04:15:12;;;;;;;73.22;24.15;;;;;;;-1.08;100.00;100260.50;5032991;28;20035;-78
2023/12/20 04:17:37;;;;;;;86.20;24.75;;;;;;;-0.92;100.00;100302.66;5050684;28;20029;-80
2023/12/20 04:20:04;;;;;;;130.25;27.77;;;;;;;-0.96;100.00;100305.66;5032549;28;20124;-78
2023/12/20 04:22:29;;;;;;;123.85;26.15;;;;;;;-1.03;100.00;100269.56;5032991;28;20028;-77
2023/12/20 04:24:54;;;;;;;66.00;23.88;;;;;;;-0.92;100.00;100280.84;5050362;28;20033;-78
2023/12/20 04:27:20;;;;;;;135.85;27.00;;;;;;;-0.68;100.00;100288.28;5050478;28;20033;-79
2023/12/20 04:29:45;;;;;;;95.90;25.02;;;;;;;-0.64;100.00;100300.94;5033045;28;20029;-79
2023/12/20 04:32:10;;;;;;;92.57;25.35;;;;;;;-1.06;100.00;100279.50;5032935;28;20045;-78
2023/12/20 04:34:36;;;;;;;65.43;21.48;;;;;;;-0.87;100.00;100295.19;5054722;28;20482;-79
2023/12/20 04:37:02;;;;;;;61.78;23.63;;;;;;;-1.10;100.00;100285.97;5033075;28;20037;-79
2023/12/20 04:39:27;;;;;;;59.08;23.08;;;;;;;-1.37;100.00;100277.00;5037038;28;20063;-77
2023/12/20 04:41:53;;;;;;;63.20;24.38;;;;;;;-1.36;100.00;100273.44;5054763;28;20636;-78
2023/12/20 04:44:18;;;;;;;57.20;23.50;;;;;;;-1.10;100.00;100288.59;5054587;28;20496;-78
2023/12/20 04:46:44;;;;;;;49.22;23.58;;;;;;;-1.15;100.00;100286.38;5054645;28;20549;-77
2023/12/20 04:49:09;;;;;;;46.58;24.50;;;;;;;-0.90;100.00;100271.91;5054654;28;20500;-82
2023/12/20 04:51:35;;;;;;;42.15;22.27;;;;;;;-0.42;100.00;100289.31;5054465;28;20025;-79
2023/12/20 04:54:02;;;;;;;32.60;19.05;;;;;;;-0.59;100.00;100244.69;5065471;28;20040;-78
2023/12/20 04:56:27;;;;;;;33.53;18.70;;;;;;;-0.48;100.00;100268.94;5074266;28;20116;-78
2023/12/20 04:58:52;;;;;;;33.15;19.52;;;;;;;-0.39;100.00;100266.41;5074520;28;20107;-77
2023/12/20 05:01:18;;;;;;;34.45;18.67;;;;;;;-0.76;100.00;100217.44;5073989;28;20447;-78
2023/12/20 05:03:43;;;;;;;58.03;38.65;;;;;;;-0.57;100.00;100248.84;5073769;28;20090;-80
2023/12/20 05:06:09;;;;;;;39.53;24.08;;;;;;;-0.61;100.00;100237.00;5074306;28;20044;-78
2023/12/20 05:08:35;;;;;;;42.58;24.00;;;;;;;-0.32;100.00;100254.41;5073741;28;20075;-79
2023/12/20 05:11:00;;;;;;;58.50;36.85;;;;;;;-0.90;100.00;100248.34;5073968;28;20503;-77
2023/12/20 05:13:26;;;;;;;44.28;24.52;;;;;;;-0.86;100.00;100196.50;5055759;28;20078;-78
2023/12/20 05:15:51;;;;;;;56.78;27.15;;;;;;;-0.70;100.00;100230.78;5073514;28;20466;-78
2023/12/20 05:18:16;;;;;;;57.00;27.75;;;;;;;-0.43;100.00;100243.13;5055958;28;20025;-79
2023/12/20 05:20:42;;;;;;;39.53;24.00;;;;;;;-0.24;100.00;100250.09;5073581;28;20479;-77
2023/12/20 05:23:07;;;;;;;45.75;24.75;;;;;;;-0.62;100.00;100253.66;5055180;28;20596;-78
2023/12/20 05:25:33;;;;;;;66.68;34.55;;;;;;;-1.07;100.00;100220.25;5055836;28;20040;-77
2023/12/20 05:27:58;;;;;;;50.22;27.10;;;;;;;-0.99;100.00;100211.72;5073816;28;20037;-77
2023/12/20 05:30:24;;;;;;;59.03;30.45;;;;;;;-0.75;100.00;100219.94;5072375;28;20020;-77
2023/12/20 05:32:49;;;;;;;72.68;34.67;;;;;;;-0.50;100.00;100247.28;5035947;28;20108;-78
2023/12/20 05:35:15;;;;;;;82.90;36.60;;;;;;;-0.78;100.00;100216.75;5068094;28;20465;-80
2023/12/20 05:37:41;;;;;;;56.45;26.13;;;;;;;-0.65;100.00;100219.91;5056038;28;20025;-79
2023/12/20 05:40:10;;;;;;;46.80;24.75;;;;;;;-0.50;100.00;100197.50;5073941;28;20029;-79
2023/12/20 05:42:35;;;;;;;45.92;25.48;;;;;;;-0.10;100.00;100230.44;5073517;28;20027;-80
2023/12/20 05:45:01;;;;;;;50.35;25.10;;;;;;;-0.45;100.00;100200.53;5049584;28;20033;-78
2023/12/20 05:47:26;;;;;;;59.53;31.38;;;;;;;-0.15;100.00;100205.63;5073524;28;20036;-79
2023/12/20 05:49:51;;;;;;;49.25;27.40;;;;;;;-0.18;100.00;100217.25;5073106;28;20105;-78
2023/12/20 05:52:17;;;;;;;43.88;22.92;;;;;;;-0.27;100.00;100203.19;5073520;28;20036;-78
2023/12/20 05:54:42;;;;;;;50.58;25.15;;;;;;;-0.01;100.00;100241.84;5054859;28;20043;-79
2023/12/20 05:57:08;;;;;;;61.65;26.80;;;;;;;-0.37;100.00;100227.78;5055272;28;20031;-78
2023/12/20 05:59:33;;;;;;;66.78;28.00;;;;;;;-0.30;100.00;100213.16;5073538;28;20440;-77
2023/12/20 06:01:58;;;;;;;104.45;37.83;;;;;;;-0.51;100.00;100208.13;5055377;28;20091;-78
2023/12/20 06:04:24;;;;;;;98.53;24.15;;;;;;;-0.74;100.00;100187.53;5070091;28;20474;-79
2023/12/20 06:06:49;;;;;;;43.53;20.95;;;;;;;-0.04;100.00;100235.09;5035259;28;20460;-78
2023/12/20 06:09:15;;;;;;;38.05;19.48;;;;;;;-0.13;100.00;100201.06;5053301;28;20043;-78
2023/12/20 06:11:40;;;;;;;42.75;20.40;;;;;;;0.05;100.00;100238.66;5053344;28;20090;-78
2023/12/20 06:14:06;;;;;;;30.65;18.35;;;;;;;-0.18;100.00;100226.88;5056460;28;20040;-79
2023/12/20 06:16:31;;;;;;;34.45;19.63;;;;;;;-0.10;100.00;100226.97;5053297;28;20036;-78
2023/12/20 06:18:57;;;;;;;40.08;19.33;;;;;;;-0.05;100.00;100217.72;5053132;28;20086;-78
2023/12/20 06:21:22;;;;;;;42.10;19.33;;;;;;;-0.01;100.00;100181.53;5034920;28;20021;-79
2023/12/20 06:23:48;;;;;;;35.20;19.13;;;;;;;-0.38;100.00;100164.09;5058536;28;20035;-78
2023/12/20 06:26:13;;;;;;;68.10;21.45;;;;;;;-0.38;100.00;100184.25;5040934;28;20036;-79
2023/12/20 06:28:38;;;;;;;48.28;19.17;;;;;;;-0.28;100.00;100203.34;5052840;28;20025;-78
2023/12/20 06:31:04;;;;;;;55.35;19.80;;;;;;;-0.26;100.00;100193.56;5053070;28;20033;-78
2023/12/20 06:33:30;;;;;;;58.88;19.85;;;;;;;-0.18;100.00;100196.28;5053093;28;20120;-78
2023/12/20 06:35:57;;;;;;;59.85;19.95;;;;;;;0.11;100.00;100216.25;5034705;28;20021;-77
2023/12/20 06:38:22;;;;;;;42.13;18.60;;;;;;;0.26;100.00;100198.22;5053091;28;20025;-78
2023/12/20 06:40:48;;;;;;;41.10;17.58;;;;;;;-0.24;100.00;100181.94;5035213;28;20460;-78
2023/12/20 06:43:13;;;;;;;40.42;20.58;;;;;;;-0.13;100.00;100222.84;5053563;28;20528;-77
2023/12/20 06:45:39;;;;;;;43.47;17.98;;;;;;;-0.04;100.00;100198.41;5053627;28;20456;-78
2023/12/20 06:48:05;;;;;;;44.00;16.13;;;;;;;0.02;100.00;100223.22;5035533;28;20104;-79
2023/12/20 06:50:30;;;;;;;43.05;19.50;;;;;;;0.09;100.00;100213.78;5061073;28;20017;-82
2023/12/20 06:52:56;;;;;;;57.75;20.70;;;;;;;-0.04;100.00;100203.66;5043342;28;20033;-78
2023/12/20 06:55:21;;;;;;;57.83;21.48;;;;;;;-0.51;100.00;100216.81;5045147;28;20437;-77
2023/12/20 06:57:46;;;;;;;38.35;17.17;;;;;;;-0.74;100.00;100199.78;5045441;28;20029;-79
2023/12/20 07:00:12;;;;;;;41.35;17.88;;;;;;;-0.60;100.00;100160.03;5043672;28;20032;-78
2023/12/20 07:02:38;;;;;;;53.50;19.08;;;;;;;-0.41;100.00;100199.28;5060316;28;20073;-79
2023/12/20 07:05:04;;;;;;;55.72;21.73;;;;;;;-0.39;100.00;100200.91;5069185;28;20053;-80
2023/12/20 07:07:29;;;;;;;83.13;20.10;;;;;;;-0.24;100.00;100220.44;5073098;28;20040;-82
2023/12/20 07:09:55;;;;;;;73.70;19.95;;;;;;;-0.28;100.00;100232.19;5067481;28;20032;-79
2023/12/20 07:12:20;;;;;;;64.55;16.73;;;;;;;-0.56;100.00;100212.97;5050624;28;20029;-80
2023/12/20 07:14:46;;;;;;;36.17;15.60;;;;;;;-0.23;100.00;100214.22;5054472;28;20063;-79
2023/12/20 07:17:13;;;;;;;52.63;16.80;;;;;;;-0.14;100.00;100218.59;5050163;28;20033;-79
2023/12/20 07:19:39;;;;;;;48.55;17.02;;;;;;;-0.03;100.00;100209.72;5046976;28;20036;-80
2023/12/20 07:22:06;;;;;;;43.30;17.67;;;;;;;-0.09;100.00;100177.03;5063103;28;20023;-79
2023/12/20 07:24:32;;;;;;;56.25;23.92;;;;;;;0.34;100.00;100199.09;5058650;28;20075;-79
2023/12/20 07:26:57;;;;;;;177.88;107.60;;;;;;;0.02;100.00;100113.09;5035825;28;20041;-78
2023/12/20 07:29:22;;;;;;;96.78;59.03;;;;;;;0.37;100.00;100159.47;5052591;28;20745;-78
2023/12/20 07:31:48;;;;;;;75.28;45.15;;;;;;;0.64;100.00;100144.59;5034312;28;20117;-78
2023/12/20 07:34:13;;;;;;;63.58;37.20;;;;;;;0.90;100.00;100162.16;5034433;28;20470;-80
2023/12/20 07:36:39;;;;;;;62.83;37.30;;;;;;;0.92;100.00;100147.94;5058123;28;20020;-77
2023/12/20 07:39:04;;;;;;;59.55;35.22;;;;;;;0.85;100.00;100151.31;5071597;28;20048;-79
2023/12/20 07:41:29;;;;;;;47.67;28.95;;;;;;;0.97;100.00;100150.91;5053917;28;20417;-82
2023/12/20 07:43:55;;;;;;;49.90;30.15;;;;;;;1.06;100.00;100156.19;5071825;28;20043;-79
2023/12/20 07:46:24;;;;;;;45.10;27.27;;;;;;;1.25;100.00;100173.53;5053473;28;20085;-79
2023/12/20 07:48:50;;;;;;;41.15;25.45;;;;;;;0.98;100.00;100154.34;5053838;28;20028;-78
2023/12/20 07:51:16;;;;;;;53.60;30.20;;;;;;;1.00;100.00;100155.00;5053654;28;20398;-79
2023/12/20 07:53:41;;;;;;;67.55;34.53;;;;;;;0.94;100.00;100151.22;5050866;28;20511;-78
2023/12/20 07:56:17;;;;;;;85.65;41.67;;;;;;;1.01;100.00;100151.41;5050989;28;20115;-82
2023/12/20 07:58:43;;;;;;;93.97;44.10;;;;;;;0.92;100.00;100154.97;5051348;28;20033;-80
2023/12/20 08:01:09;;;;;;;165.93;60.35;;;;;;;1.17;100.00;100124.44;5051206;28;20067;-79
2023/12/20 08:03:35;;;;;;;156.07;60.63;;;;;;;1.18;100.00;100142.66;5051583;28;20024;-78
2023/12/20 08:06:00;;;;;;;178.00;62.33;;;;;;;0.99;100.00;100177.00;5051102;28;20104;-79
2023/12/20 08:08:25;;;;;;;155.80;61.30;;;;;;;0.99;100.00;100159.44;5051318;28;20082;-80
2023/12/20 08:10:51;;;;;;;151.30;58.38;;;;;;;1.02;100.00;100149.59;5051235;28;20133;-79
2023/12/20 08:13:16;;;;;;;152.55;55.03;;;;;;;0.77;100.00;100154.69;5032957;28;20029;-78
2023/12/20 08:15:42;;;;;;;122.22;51.38;;;;;;;0.74;100.00;100152.41;5069870;28;20032;-78
2023/12/20 08:18:07;;;;;;;138.45;48.15;;;;;;;0.90;100.00;100138.53;5052953;28;20036;-79
2023/12/20 08:20:33;;;;;;;128.10;48.65;;;;;;;1.08;100.00;100159.50;5070816;28;20078;-78
2023/12/20 08:22:58;;;;;;;160.50;51.33;;;;;;;1.13;100.00;100144.13;5071060;28;20060;-79
2023/12/20 08:25:23;;;;;;;139.48;51.50;;;;;;;1.38;100.00;100142.44;5052931;28;20032;-78
2023/12/20 08:27:49;;;;;;;167.98;62.70;;;;;;;1.68;100.00;100132.38;5071342;28;20059;-79
2023/12/20 08:30:14;;;;;;;143.40;53.72;;;;;;;1.95;100.00;100137.38;5071006;28;20036;-78
2023/12/20 08:32:39;;;;;;;116.68;46.28;;;;;;;2.01;100.00;100085.94;5070820;28;20386;-76
2023/12/20 08:35:05;;;;;;;108.70;47.20;;;;;;;2.50;100.00;100133.31;5052800;28;20056;-77
2023/12/20 08:37:31;;;;;;;111.90;47.00;;;;;;;2.41;100.00;100098.28;5067075;28;20017;-79
2023/12/20 08:39:56;;;;;;;106.18;46.28;;;;;;;2.55;100.00;100122.28;5050669;28;20032;-77
2023/12/20 08:42:24;;;;;;;111.47;45.10;;;;;;;2.93;100.00;100133.13;5050507;28;20575;-77
2023/12/20 08:44:49;;;;;;;109.43;43.13;;;;;;;3.03;100.00;100111.88;5050549;28;20497;-80
2023/12/20 08:47:15;;;;;;;109.80;44.55;;;;;;;2.94;100.00;100118.94;5032578;28;20120;-78
2023/12/20 08:49:41;;;;;;;98.95;45.13;;;;;;;3.04;100.00;100093.25;5050696;28;20116;-77
2023/12/20 08:52:07;;;;;;;105.65;50.45;;;;;;;10.90;100.00;100120.66;5032540;28;20029;-77
2023/12/20 08:54:32;;;;;;;89.22;43.53;;;;;;;14.79;66.41;100153.91;5050129;28;20044;-77
2023/12/20 08:56:57;;;;;;;80.20;42.80;;;;;;;15.99;57.51;100134.53;5049762;28;20121;-78
2023/12/20 08:59:23;;;;;;;67.15;35.55;;;;;;;16.28;50.41;100136.97;5049420;28;20033;-79
2023/12/20 09:01:53;;;;;;;65.10;37.40;;;;;;;14.07;53.04;100125.81;5049538;28;20104;-77
2023/12/20 09:04:19;;;;;;;65.78;36.03;;;;;;;13.41;56.51;100111.13;5049262;28;20449;-77
2023/12/20 09:06:44;;;;;;;56.03;31.92;;;;;;;10.90;66.00;100126.00;5049319;28;20071;-78
2023/12/20 09:09:13;;;;;;;51.78;29.88;;;;;;;11.97;63.28;100101.56;5049318;28;20044;-78
2023/12/20 09:11:39;;;;;;;56.45;30.48;;;;;;;12.03;60.93;100082.78;5049268;28;20644;-79
2023/12/20 09:14:04;;;;;;;48.75;28.05;;;;;;;11.86;63.49;100084.44;5049298;28;20037;-78
2023/12/20 09:16:31;;;;;;;55.17;32.03;;;;;;;12.41;60.60;100070.88;5031468;28;20037;-78
2023/12/20 09:18:56;;;;;;;55.42;35.22;;;;;;;12.71;59.80;100059.28;5057632;28;20477;-77
2023/12/20 09:21:22;;;;;;;55.42;34.05;;;;;;;15.48;49.52;100072.09;5069434;28;20162;-77
2023/12/20 09:23:47;;;;;;;46.28;28.92;;;;;;;15.64;48.72;100065.84;5068235;28;20059;-78
2023/12/20 09:26:13;;;;;;;47.40;30.35;;;;;;;15.04;49.71;100066.75;5052897;28;20037;-79
2023/12/20 09:28:40;;;;;;;50.08;30.75;;;;;;;15.10;49.66;100035.38;5057289;28;20150;-78
2023/12/20 09:31:06;;;;;;;50.92;33.65;;;;;;;14.64;51.83;100048.97;5073037;28;20036;-78
2023/12/20 09:33:32;;;;;;;47.45;30.80;;;;;;;15.73;50.64;100076.16;5073178;28;20032;-80
2023/12/20 09:35:57;;;;;;;48.63;32.72;;;;;;;13.93;56.50;100038.69;5054154;28;20033;-77
2023/12/20 09:38:23;;;;;;;47.47;32.42;;;;;;;13.78;53.44;100033.06;5053010;28;20021;-77
2023/12/20 09:40:48;;;;;;;44.15;30.52;;;;;;;13.24;56.61;100034.19;5052748;28;20120;-80
2023/12/20 09:43:18;;;;;;;43.22;29.27;;;;;;;13.09;59.84;100015.09;5053270;28;20027;-75
2023/12/20 09:45:46;;;;;;;42.78;30.73;;;;;;;13.10;61.09;100023.94;5052899;28;20029;-77
2023/12/20 09:48:11;;;;;;;;;;;;;;;12.20;63.71;100009.94;5053643;28;20048;-77
2023/12/20 09:50:37;;;;;;;42.35;27.95;;;;;;;12.02;64.51;99997.47;5053246;28;20389;-78
2023/12/20 09:53:04;;;;;;;39.25;28.33;;;;;;;12.48;62.22;99979.00;5052874;28;20029;-79
2023/12/20 09:55:33;;;;;;;153.93;72.97;;;;;;;12.62;60.25;99970.50;5052965;28;20109;-77
2023/12/20 09:57:59;;;;;;;48.20;33.35;;;;;;;10.89;69.75;99956.25;5052836;28;20017;-77
2023/12/20 10:00:25;;;;;;;37.70;28.70;;;;;;;10.23;75.72;99959.38;5052894;28;20478;-78
2023/12/20 10:02:59;;;;;;;25.35;18.48;;;;;;;9.69;72.86;99946.72;5034761;28;20036;-78
2023/12/20 10:05:30;;;;;;;25.58;17.83;;;;;;;9.74;74.58;99945.00;5052715;28;20075;-77
2023/12/20 10:07:56;;;;;;;23.13;16.52;;;;;;;9.29;75.72;99950.44;5053346;28;20111;-77
2023/12/20 10:10:21;;;;;;;22.10;15.38;;;;;;;9.43;73.32;99948.50;5065019;28;20028;-77
2023/12/20 10:13:10;;;;;;;19.80;14.70;;;;;;;9.16;80.93;99951.31;5073985;28;20027;-77
2023/12/20 10:15:36;;;;;;;21.20;15.70;;;;;;;9.13;78.95;99942.94;5040814;28;20036;-77
2023/12/20 10:18:03;;;;;;;21.05;15.95;;;;;;;9.05;82.76;99947.50;5035809;28;20036;-78
2023/12/20 10:20:29;;;;;;;23.52;14.93;;;;;;;9.07;78.66;99928.63;5053727;28;20043;-76
2023/12/20 10:22:56;;;;;;;21.13;15.25;;;;;;;10.04;74.84;99942.53;5053090;28;20481;-77
2023/12/20 10:25:21;;;;;;;25.13;19.33;;;;;;;9.50;78.14;99912.03;5040421;28;20029;-79
2023/12/20 10:27:47;;;;;;;21.65;15.60;;;;;;;10.32;74.16;99903.97;5015436;28;20497;-78
2023/12/20 10:30:16;;;;;;;21.63;15.50;;;;;;;10.37;73.20;99906.78;5029537;28;20036;-80
2023/12/20 10:32:41;;;;;;;20.63;15.13;;;;;;;10.52;71.75;99913.59;5054657;28;20017;-78
2023/12/20 10:35:08;;;;;;;22.95;16.05;;;;;;;10.88;70.16;99879.94;5072347;28;20136;-78
2023/12/20 10:37:37;;;;;;;25.55;20.33;;;;;;;11.49;70.04;99920.78;5072634;28;20669;-78
2023/12/20 10:40:05;;;;;;;24.50;17.13;;;;;;;11.25;67.11;99896.69;5050660;28;20037;-77
2023/12/20 10:42:33;;;;;;;30.05;21.77;;;;;;;11.38;70.65;99909.00;5052449;28;20123;-78
2023/12/20 10:45:00;;;;;;;29.17;22.30;;;;;;;11.77;69.99;99872.88;5052359;28;20028;-77
2023/12/20 10:47:26;;;;;;;25.00;18.08;;;;;;;11.98;67.89;99868.84;5052560;28;20025;-77
2023/12/20 10:49:52;;;;;;;23.67;16.48;;;;;;;12.55;62.71;99878.06;5051910;28;20429;-77
2023/12/20 10:52:18;;;;;;;23.95;16.92;;;;;;;12.31;62.38;99846.03;5052432;28;20021;-78
2023/12/20 10:54:44;;;;;;;26.35;17.58;;;;;;;12.35;62.73;99841.03;5051972;28;20094;-76
2023/12/20 10:57:11;;;;;;;32.00;23.17;;;;;;;13.30;61.06;99884.31;5052357;28;20032;-77
2023/12/20 10:59:38;;;;;;;36.53;29.48;;;;;;;12.79;62.82;99879.63;5051808;28;20082;-79